Time;durP1;ratioP1;P1;durP2;ratioP2;P2;SDS_P1;SDS_P2;PMS_P1;PMS_P2;Temp;Humidity;BMP_temperature;BMP_pressure;BME280_temperature;BME280_humidity;BME280_pressure;Samples;Min_cycle;Max_cycle;Signal;HPM_P1;HPM_P2
2023/09/18 00:01:09;;;;;;;63.58;33.25;;;17.30;99.90;;;;;;5089069;28;20063;-60
2023/09/18 00:03:37;;;;;;;68.50;33.75;;;17.30;99.90;;;;;;5107567;27;20056;-60
2023/09/18 00:06:05;;;;;;;68.78;34.33;;;17.30;99.90;;;;;;5108565;28;20399;-60
2023/09/18 00:08:33;;;;;;;66.03;34.38;;;17.30;99.90;;;;;;5108753;28;20050;-60
2023/09/18 00:11:00;;;;;;;65.85;33.50;;;17.30;99.90;;;;;;5109023;28;20387;-60
2023/09/18 00:13:28;;;;;;;65.60;33.13;;;17.30;99.90;;;;;;5102036;27;20044;-60
2023/09/18 00:15:59;;;;;;;69.05;34.95;;;17.30;99.90;;;;;;5097189;28;20040;-60
2023/09/18 00:18:27;;;;;;;64.82;34.08;;;17.30;99.90;;;;;;5094914;28;20047;-60
2023/09/18 00:20:55;;;;;;;73.13;33.92;;;17.30;99.90;;;;;;5108909;28;20058;-60
2023/09/18 00:23:22;;;;;;;68.93;35.33;;;17.30;99.90;;;;;;5109118;27;20590;-60
2023/09/18 00:25:50;;;;;;;66.97;33.45;;;17.30;99.90;;;;;;5108111;28;20051;-60
2023/09/18 00:28:18;;;;;;;74.35;35.13;;;17.30;99.90;;;;;;5103391;28;20056;-60
2023/09/18 00:30:50;;;;;;;72.60;35.53;;;17.30;99.90;;;;;;5090477;28;20042;-60
2023/09/18 00:33:19;;;;;;;71.68;36.55;;;17.30;99.90;;;;;;5107622;27;20411;-60
2023/09/18 00:35:48;;;;;;;77.85;35.55;;;17.30;99.90;;;;;;5110348;27;20043;-60
2023/09/18 00:38:17;;;;;;;73.47;35.45;;;17.30;99.90;;;;;;5101818;28;20040;-60
2023/09/18 00:40:44;;;;;;;68.18;34.80;;;17.30;99.90;;;;;;5107463;28;20043;-61
2023/09/18 00:43:12;;;;;;;68.75;35.47;;;17.30;99.90;;;;;;5105950;28;20048;-61
2023/09/18 00:45:44;;;;;;;75.30;34.60;;;17.30;99.90;;;;;;5099967;28;20051;-60
2023/09/18 00:48:13;;;;;;;77.30;35.97;;;17.30;99.90;;;;;;5108202;28;20039;-61
2023/09/18 00:50:45;;;;;;;71.93;35.20;;;17.30;99.90;;;;;;5107089;28;20601;-60
2023/09/18 00:53:18;;;;;;;72.28;34.50;;;17.30;99.90;;;;;;5094489;28;20043;-60
2023/09/18 00:55:47;;;;;;;71.50;34.50;;;17.30;99.90;;;;;;5103495;28;20411;-60
2023/09/18 00:58:15;;;;;;;71.88;33.72;;;17.30;99.90;;;;;;5098168;28;20047;-60
2023/09/18 01:00:44;;;;;;;70.50;34.50;;;17.30;99.90;;;;;;5103511;28;20047;-60
2023/09/18 01:03:12;;;;;;;67.68;33.00;;;17.30;99.90;;;;;;5097783;28;20047;-60
2023/09/18 01:05:40;;;;;;;69.45;34.83;;;17.30;99.90;;;;;;5104162;28;20048;-61
2023/09/18 01:08:08;;;;;;;70.57;34.78;;;17.30;99.90;;;;;;5107470;28;20055;-60
2023/09/18 01:11:21;;;;;;;71.75;34.15;;;17.30;99.90;;;;;;5106990;28;20059;-60
2023/09/18 01:13:59;;;;;;;76.07;34.95;;;17.30;99.90;;;;;;5095080;27;20055;-60
2023/09/18 01:17:04;;;;;;;70.45;34.90;;;17.30;99.90;;;;;;5112386;28;20040;-60
2023/09/18 01:19:40;;;;;;;67.22;33.97;;;17.30;99.90;;;;;;5111233;27;20054;-60
2023/09/18 01:22:10;;;;;;;65.60;33.70;;;17.30;99.90;;;;;;5110882;28;20035;-60
2023/09/18 01:24:39;;;;;;;61.77;31.00;;;17.20;99.90;;;;;;5123673;27;20043;-60
2023/09/18 01:27:10;;;;;;;68.80;33.60;;;17.20;99.90;;;;;;5132825;27;20295;-60
2023/09/18 01:29:38;;;;;;;65.20;33.42;;;17.20;99.90;;;;;;5109955;27;20048;-60
2023/09/18 01:32:06;;;;;;;70.93;32.60;;;17.20;99.90;;;;;;5106857;27;20047;-60
2023/09/18 01:34:41;;;;;;;76.93;36.83;;;17.20;99.90;;;;;;5112015;28;20055;-60
2023/09/18 01:37:11;;;;;;;66.60;34.35;;;17.20;99.90;;;;;;5105576;28;20040;-60
2023/09/18 01:39:41;;;;;;;71.38;36.45;;;17.20;99.90;;;;;;5096917;28;20048;-60
2023/09/18 01:42:09;;;;;;;71.30;37.35;;;17.10;99.90;;;;;;5105465;27;20044;-60
2023/09/18 01:44:40;;;;;;;89.35;39.65;;;17.20;99.90;;;;;;5114092;28;20394;-60
2023/09/18 01:47:19;;;;;;;67.50;34.55;;;17.10;99.90;;;;;;5098838;28;20063;-60
2023/09/18 01:49:47;;;;;;;72.13;34.50;;;17.10;99.90;;;;;;5091386;28;20514;-60
2023/09/18 01:52:15;;;;;;;62.45;32.45;;;17.10;99.90;;;;;;5093481;28;20491;-60
2023/09/18 01:54:43;;;;;;;67.65;31.65;;;17.10;99.90;;;;;;5093881;28;20487;-60
2023/09/18 01:57:12;;;;;;;68.47;31.25;;;17.10;99.90;;;;;;5091268;28;20049;-60
2023/09/18 01:59:41;;;;;;;66.03;32.85;;;17.10;99.90;;;;;;5106690;28;20051;-60
2023/09/18 02:02:10;;;;;;;63.17;32.78;;;17.10;99.90;;;;;;5100331;28;20071;-60
2023/09/18 02:04:47;;;;;;;59.88;30.50;;;17.10;99.90;;;;;;5113754;28;20070;-60
2023/09/18 02:07:35;;;;;;;54.03;29.83;;;17.10;99.90;;;;;;5113716;28;20047;-61
2023/09/18 02:10:03;;;;;;;60.15;30.08;;;17.10;99.90;;;;;;5114393;28;20505;-60
2023/09/18 02:12:31;;;;;;;57.67;30.15;;;17.10;99.90;;;;;;5114148;28;20514;-60
2023/09/18 02:15:06;;;;;;;55.40;28.70;;;17.10;99.90;;;;;;5099971;28;20048;-60
2023/09/18 02:17:34;;;;;;;51.72;29.40;;;17.10;99.90;;;;;;5094143;28;20055;-60
2023/09/18 02:20:05;;;;;;;56.90;28.15;;;17.10;99.90;;;;;;5094181;28;20059;-60
2023/09/18 02:22:33;;;;;;;60.92;28.80;;;17.10;99.90;;;;;;5094023;28;20036;-60
2023/09/18 02:25:00;;;;;;;54.00;28.63;;;17.10;99.90;;;;;;5093757;28;20055;-60
2023/09/18 02:27:28;;;;;;;50.78;28.45;;;17.10;99.90;;;;;;5094163;28;20055;-60
2023/09/18 02:29:55;;;;;;;52.47;28.10;;;17.10;99.90;;;;;;5099315;28;20066;-60
2023/09/18 02:32:23;;;;;;;51.35;28.05;;;17.10;99.90;;;;;;5111681;28;20058;-60
2023/09/18 02:34:51;;;;;;;57.42;29.48;;;17.10;99.90;;;;;;5114255;28;20036;-60
2023/09/18 02:37:19;;;;;;;56.30;28.13;;;17.10;99.90;;;;;;5112896;28;20050;-60
2023/09/18 02:39:47;;;;;;;61.28;29.88;;;17.10;99.90;;;;;;5111274;28;20056;-60
2023/09/18 02:42:14;;;;;;;55.65;29.05;;;17.10;99.90;;;;;;5114130;28;20517;-60
2023/09/18 02:44:42;;;;;;;57.90;28.27;;;17.10;99.90;;;;;;5112540;28;20046;-60
2023/09/18 02:47:09;;;;;;;54.55;27.83;;;17.10;99.90;;;;;;5113996;28;20040;-60
2023/09/18 02:49:37;;;;;;;54.83;26.98;;;17.10;99.90;;;;;;5112855;28;20044;-60
2023/09/18 02:52:05;;;;;;;51.20;27.95;;;17.10;99.90;;;;;;5106285;28;20036;-60
2023/09/18 02:54:33;;;;;;;48.17;26.15;;;17.10;99.90;;;;;;5112477;28;20059;-60
2023/09/18 02:57:01;;;;;;;53.33;25.55;;;17.10;99.90;;;;;;5114311;28;20483;-60
2023/09/18 02:59:28;;;;;;;48.28;26.95;;;17.00;99.90;;;;;;5109953;28;20066;-60
2023/09/18 03:01:56;;;;;;;51.17;26.55;;;17.00;99.90;;;;;;5113651;28;20043;-60
2023/09/18 03:04:24;;;;;;;53.58;26.70;;;17.00;99.90;;;;;;5113342;28;20048;-60
2023/09/18 03:06:52;;;;;;;51.45;24.95;;;17.00;99.90;;;;;;5112544;28;20398;-60
2023/09/18 03:09:21;;;;;;;47.40;25.10;;;17.00;99.90;;;;;;5095619;28;20056;-60
2023/09/18 03:11:49;;;;;;;42.53;23.65;;;16.90;99.90;;;;;;5112126;28;20046;-60
2023/09/18 03:14:17;;;;;;;42.50;23.65;;;16.90;99.90;;;;;;5108447;28;20051;-60
2023/09/18 03:16:45;;;;;;;44.97;23.55;;;16.90;99.90;;;;;;5112047;28;20394;-60
2023/09/18 03:19:13;;;;;;;49.45;25.70;;;16.90;99.90;;;;;;5112090;28;20043;-60
2023/09/18 03:21:42;;;;;;;44.38;23.80;;;16.90;99.90;;;;;;5112141;28;20043;-60
2023/09/18 03:24:10;;;;;;;46.00;22.50;;;16.80;99.90;;;;;;5112272;28;20043;-60
2023/09/18 03:26:37;;;;;;;45.90;24.45;;;16.80;99.90;;;;;;5113290;28;20036;-61
2023/09/18 03:29:05;;;;;;;49.60;23.10;;;16.80;99.90;;;;;;5113321;28;20043;-60
2023/09/18 03:31:33;;;;;;;47.20;23.33;;;16.80;99.90;;;;;;5111118;28;20050;-60
2023/09/18 03:34:01;;;;;;;43.40;23.23;;;16.80;99.90;;;;;;5094856;28;20141;-60
2023/09/18 03:36:28;;;;;;;45.40;23.13;;;16.80;99.90;;;;;;5094498;28;20047;-61
2023/09/18 03:38:56;;;;;;;45.53;23.90;;;16.80;99.90;;;;;;5111429;28;20509;-60
2023/09/18 03:41:25;;;;;;;45.08;23.52;;;16.80;99.90;;;;;;5111523;28;20498;-60
2023/09/18 03:43:53;;;;;;;43.75;22.48;;;16.80;99.90;;;;;;5111605;28;20036;-60
2023/09/18 03:46:21;;;;;;;43.78;22.15;;;16.70;99.90;;;;;;5111346;28;20129;-60
2023/09/18 03:48:49;;;;;;;43.28;23.50;;;16.70;99.90;;;;;;5111386;28;20050;-60
2023/09/18 03:51:19;;;;;;;47.42;23.67;;;16.70;99.90;;;;;;5111694;28;20040;-60
2023/09/18 03:53:48;;;;;;;49.33;24.92;;;16.60;99.90;;;;;;5111456;28;20121;-60
2023/09/18 03:56:16;;;;;;;49.15;22.95;;;16.60;99.90;;;;;;5112819;28;20048;-60
2023/09/18 03:58:46;;;;;;;34.80;20.92;;;16.50;99.90;;;;;;5112483;28;20040;-60
2023/09/18 04:01:14;;;;;;;30.77;18.30;;;16.50;99.90;;;;;;5095927;28;20047;-60
2023/09/18 04:03:42;;;;;;;29.20;18.35;;;16.50;99.90;;;;;;5110592;28;20051;-60
2023/09/18 04:06:09;;;;;;;35.63;18.35;;;16.50;99.90;;;;;;5098586;28;20043;-60
2023/09/18 04:08:37;;;;;;;34.65;19.35;;;16.50;99.90;;;;;;5091224;28;20040;-60
2023/09/18 04:11:05;;;;;;;25.90;16.17;;;16.40;99.90;;;;;;5092184;28;20058;-60
2023/09/18 04:13:33;;;;;;;31.58;15.07;;;16.50;99.90;;;;;;5109937;28;20415;-60
2023/09/18 04:16:03;;;;;;;26.17;14.83;;;16.40;99.90;;;;;;5112127;28;20066;-60
2023/09/18 04:18:32;;;;;;;;;;;16.40;99.90;;;;;;5111448;28;20284;-60
2023/09/18 04:21:00;;;;;;;23.23;13.18;;;16.40;99.90;;;;;;5112329;28;19923;-60
2023/09/18 04:23:28;;;;;;;20.90;13.57;;;16.30;99.90;;;;;;5110995;28;20035;-60
2023/09/18 04:25:59;;;;;;;21.65;13.90;;;16.30;99.90;;;;;;5094586;28;20044;-61
2023/09/18 04:28:27;;;;;;;24.73;14.25;;;16.30;99.90;;;;;;5111688;28;20058;-61
2023/09/18 04:30:55;;;;;;;20.67;13.23;;;16.30;99.90;;;;;;5110618;28;20040;-61
2023/09/18 04:33:25;;;;;;;20.83;13.20;;;16.20;99.90;;;;;;5110735;28;20040;-61
2023/09/18 04:35:53;;;;;;;21.45;13.23;;;16.20;99.90;;;;;;5110665;28;20051;-60
2023/09/18 04:38:21;;;;;;;22.33;13.95;;;16.20;99.90;;;;;;5093987;28;20047;-60
2023/09/18 04:40:49;;;;;;;23.88;14.30;;;16.20;99.90;;;;;;5110851;28;20062;-60
2023/09/18 04:43:17;;;;;;;25.48;14.00;;;16.10;99.90;;;;;;5093987;28;20042;-60
2023/09/18 04:45:45;;;;;;;25.77;16.17;;;16.10;99.90;;;;;;5110444;28;20542;-61
2023/09/18 04:48:14;;;;;;;24.83;15.15;;;16.10;99.90;;;;;;5103067;28;20402;-60
2023/09/18 04:50:46;;;;;;;25.40;14.57;;;16.00;99.90;;;;;;5088416;28;20055;-61
2023/09/18 04:53:14;;;;;;;25.23;14.13;;;16.00;99.90;;;;;;5102901;28;20058;-60
2023/09/18 04:55:42;;;;;;;24.02;15.57;;;16.00;99.90;;;;;;5108116;28;20055;-60
2023/09/18 04:58:10;;;;;;;26.63;15.02;;;16.00;99.90;;;;;;5089889;28;20042;-60
2023/09/18 05:00:38;;;;;;;23.30;14.88;;;15.90;99.90;;;;;;5100286;28;20066;-60
2023/09/18 05:03:06;;;;;;;22.42;12.63;;;15.90;99.90;;;;;;5092676;28;20044;-60
2023/09/18 05:05:34;;;;;;;17.90;12.13;;;15.90;99.90;;;;;;5083345;28;20056;-59
2023/09/18 05:08:07;;;;;;;15.05;10.40;;;15.90;99.90;;;;;;5107941;28;20062;-59
2023/09/18 05:10:36;;;;;;;13.77;8.40;;;15.80;99.90;;;;;;5100562;28;20044;-59
2023/09/18 05:13:04;;;;;;;17.35;9.70;;;15.70;99.90;;;;;;5097220;28;20047;-59
2023/09/18 05:15:32;;;;;;;13.15;8.90;;;15.70;99.90;;;;;;5103488;28;20058;-59
2023/09/18 05:18:00;;;;;;;14.27;8.85;;;15.70;99.90;;;;;;5102001;28;20044;-60
2023/09/18 05:20:29;;;;;;;17.52;9.13;;;15.70;99.90;;;;;;5103568;28;20051;-60
2023/09/18 05:22:58;;;;;;;14.15;8.98;;;15.60;99.90;;;;;;5107661;28;20043;-60
2023/09/18 05:25:30;;;;;;;13.68;7.63;;;15.60;99.90;;;;;;5108554;28;20048;-60
2023/09/18 05:28:00;;;;;;;13.70;8.50;;;15.60;99.90;;;;;;5108499;28;20046;-61
2023/09/18 05:30:32;;;;;;;13.07;8.40;;;15.50;99.90;;;;;;5092721;28;20044;-60
2023/09/18 05:33:08;;;;;;;11.48;8.65;;;15.50;99.90;;;;;;5103482;28;20036;-61
2023/09/18 05:35:41;;;;;;;13.63;9.18;;;15.40;99.90;;;;;;5107782;28;20047;-60
2023/09/18 05:38:13;;;;;;;11.95;8.35;;;15.40;99.90;;;;;;5104946;28;20040;-60
2023/09/18 05:40:41;;;;;;;12.30;8.68;;;15.40;99.90;;;;;;5107893;28;20051;-60
2023/09/18 05:43:10;;;;;;;12.00;8.02;;;15.30;99.90;;;;;;5119724;28;20509;-60
2023/09/18 05:45:38;;;;;;;13.93;7.82;;;15.30;99.90;;;;;;5128401;28;20043;-60
2023/09/18 05:48:06;;;;;;;13.20;7.50;;;15.20;99.90;;;;;;5103303;28;20052;-60
2023/09/18 05:50:38;;;;;;;13.23;7.85;;;15.20;99.90;;;;;;5087812;28;20055;-60
2023/09/18 05:53:05;;;;;;;12.93;7.13;;;15.20;99.90;;;;;;5109431;28;20047;-60
2023/09/18 05:55:34;;;;;;;14.23;6.47;;;15.10;99.90;;;;;;5114629;28;20048;-60
2023/09/18 05:58:06;;;;;;;13.32;6.13;;;15.10;99.90;;;;;;5093501;28;20044;-60
2023/09/18 06:00:34;;;;;;;8.77;6.03;;;15.00;99.90;;;;;;5108858;28;20486;-60
2023/09/18 06:03:03;;;;;;;10.20;5.43;;;15.00;99.90;;;;;;5106957;27;20046;-60
2023/09/18 06:05:31;;;;;;;6.50;4.25;;;15.00;99.90;;;;;;5090410;28;20055;-60
2023/09/18 06:08:00;;;;;;;5.28;4.22;;;14.90;99.90;;;;;;5109848;28;20062;-60
2023/09/18 06:10:28;;;;;;;9.63;4.78;;;14.90;99.90;;;;;;5111157;28;20048;-60
2023/09/18 06:12:56;;;;;;;5.72;4.55;;;14.90;99.90;;;;;;5111022;28;20048;-59
2023/09/18 06:15:23;;;;;;;10.27;4.53;;;14.80;99.90;;;;;;5110952;28;20063;-59
2023/09/18 06:17:52;;;;;;;6.53;4.20;;;14.80;99.90;;;;;;5114708;27;20129;-59
2023/09/18 06:20:21;;;;;;;9.38;4.68;;;14.80;99.90;;;;;;5091850;28;20048;-59
2023/09/18 06:22:49;;;;;;;8.52;4.75;;;14.80;99.90;;;;;;5102785;27;20048;-59
2023/09/18 06:25:17;;;;;;;11.52;5.18;;;14.70;99.90;;;;;;5103378;27;20043;-60
2023/09/18 06:27:45;;;;;;;11.30;4.80;;;14.70;99.90;;;;;;5108026;27;20622;-59
2023/09/18 06:30:14;;;;;;;8.93;4.38;;;14.70;99.90;;;;;;5114278;27;20501;-60
2023/09/18 06:32:41;;;;;;;13.52;4.97;;;14.70;99.90;;;;;;5102164;27;20055;-59
2023/09/18 06:35:09;;;;;;;8.77;5.35;;;14.60;99.90;;;;;;5090988;27;20044;-59
2023/09/18 06:37:38;;;;;;;9.23;5.10;;;14.60;99.90;;;;;;5099857;27;20043;-59
2023/09/18 06:40:06;;;;;;;10.45;5.55;;;14.60;99.90;;;;;;5090067;27;20055;-59
2023/09/18 06:42:34;;;;;;;10.93;5.75;;;14.60;99.90;;;;;;5116340;27;20047;-59
2023/09/18 06:45:06;;;;;;;8.60;6.22;;;14.60;99.90;;;;;;5130965;27;20054;-59
2023/09/18 06:47:35;;;;;;;13.50;7.20;;;14.60;99.90;;;;;;5127028;27;20484;-59
2023/09/18 06:50:06;;;;;;;12.27;6.50;;;14.60;99.90;;;;;;5093101;28;20484;-59
2023/09/18 06:52:33;;;;;;;9.30;6.88;;;14.60;99.90;;;;;;5105570;27;20043;-59
2023/09/18 06:55:01;;;;;;;13.85;7.00;;;14.60;99.90;;;;;;5091472;27;20050;-59
2023/09/18 06:57:29;;;;;;;15.60;7.35;;;14.60;99.90;;;;;;5098756;27;20395;-59
2023/09/18 06:59:56;;;;;;;12.35;6.90;;;14.60;99.90;;;;;;5108986;27;20055;-59
2023/09/18 07:02:27;;;;;;;9.57;6.78;;;14.60;99.90;;;;;;5100641;27;20044;-59
2023/09/18 07:04:57;;;;;;;15.82;8.55;;;14.60;99.90;;;;;;5090201;27;20044;-60
2023/09/18 07:07:25;;;;;;;16.83;10.20;;;14.60;99.90;;;;;;5094381;28;20510;-58
2023/09/18 07:09:53;;;;;;;12.82;8.60;;;14.70;99.90;;;;;;5109002;28;20047;-59
2023/09/18 07:12:32;;;;;;;15.98;9.02;;;14.70;99.90;;;;;;5103593;27;20052;-58
2023/09/18 07:15:03;;;;;;;17.42;8.75;;;14.80;99.90;;;;;;5109799;28;20043;-59
2023/09/18 07:17:32;;;;;;;14.77;9.50;;;14.90;99.90;;;;;;5107926;28;20060;-59
2023/09/18 07:20:07;;;;;;;13.02;8.68;;;14.90;99.90;;;;;;5099354;27;20043;-61
2023/09/18 07:22:35;;;;;;;13.60;7.93;;;15.00;99.90;;;;;;5109955;28;20051;-58
2023/09/18 07:25:07;;;;;;;12.15;6.78;;;15.00;99.90;;;;;;5103116;27;20058;-59
2023/09/18 07:27:36;;;;;;;13.40;5.80;;;15.10;99.90;;;;;;5097012;28;20110;-60
2023/09/18 07:30:05;;;;;;;9.40;6.75;;;15.20;99.90;;;;;;5096029;28;20044;-59
2023/09/18 07:32:33;;;;;;;14.80;6.15;;;15.20;99.90;;;;;;5109050;27;20475;-59
2023/09/18 07:35:07;;;;;;;8.30;5.30;;;15.20;99.90;;;;;;5094573;28;20044;-60
2023/09/18 07:37:35;;;;;;;;;;;15.20;99.90;;;;;;5101107;28;20375;-60
2023/09/18 07:40:07;;;;;;;12.93;4.35;;;15.30;99.90;;;;;;5109275;28;20363;-61
2023/09/18 07:42:34;;;;;;;7.35;3.83;;;15.30;99.90;;;;;;5097839;28;20033;-60
2023/09/18 07:45:02;;;;;;;6.57;4.28;;;15.30;99.90;;;;;;5100150;28;20043;-60
2023/09/18 07:47:30;;;;;;;7.07;4.35;;;15.40;99.90;;;;;;5086621;28;21189;-60
2023/09/18 07:50:00;;;;;;;10.00;3.88;;;15.50;99.90;;;;;;5094033;27;20036;-60
2023/09/18 07:52:30;;;;;;;6.45;4.22;;;15.50;99.90;;;;;;5088726;28;20055;-60
2023/09/18 07:54:58;;;;;;;7.82;4.30;;;15.60;99.90;;;;;;5100371;28;20047;-60
2023/09/18 07:57:29;;;;;;;5.95;3.63;;;15.70;99.90;;;;;;5094552;27;20047;-60
2023/09/18 08:00:06;;;;;;;9.52;3.63;;;15.70;99.90;;;;;;5101890;28;20644;-60
2023/09/18 08:02:40;;;;;;;8.85;3.45;;;15.80;99.90;;;;;;5088904;28;20063;-60
2023/09/18 08:05:08;;;;;;;5.10;3.30;;;15.90;99.90;;;;;;5101371;28;20055;-60
2023/09/18 08:07:37;;;;;;;8.85;2.92;;;15.90;99.90;;;;;;5096935;28;20043;-60
2023/09/18 08:10:08;;;;;;;11.20;2.70;;;16.00;99.90;;;;;;5093974;28;20032;-61
2023/09/18 08:12:36;;;;;;;8.95;2.92;;;16.00;99.90;;;;;;5098684;27;20506;-61
2023/09/18 08:15:06;;;;;;;4.13;1.80;;;16.10;99.90;;;;;;5098646;28;20032;-61
2023/09/18 08:17:34;;;;;;;11.68;2.40;;;16.20;99.90;;;;;;5103768;28;20039;-61
2023/09/18 08:20:09;;;;;;;5.88;1.90;;;16.20;99.90;;;;;;5089479;27;20044;-61
2023/09/18 08:22:38;;;;;;;7.47;1.95;;;16.30;99.90;;;;;;5090514;27;20051;-61
2023/09/18 08:25:10;;;;;;;7.65;2.50;;;16.40;99.90;;;;;;5094941;28;20490;-62
2023/09/18 08:27:43;;;;;;;13.50;2.10;;;16.40;99.90;;;;;;5094193;27;20051;-62
2023/09/18 08:30:13;;;;;;;7.75;2.00;;;16.50;99.90;;;;;;5105454;28;20048;-62
2023/09/18 08:32:42;;;;;;;5.10;2.00;;;16.50;99.90;;;;;;5108435;27;20081;-60
2023/09/18 08:35:11;;;;;;;6.72;2.15;;;16.60;99.90;;;;;;5105804;27;20044;-62
2023/09/18 08:37:43;;;;;;;5.40;1.75;;;16.70;99.90;;;;;;5104508;28;20063;-61
2023/09/18 08:40:13;;;;;;;11.60;2.22;;;16.90;99.90;;;;;;5094974;28;20043;-61
2023/09/18 08:42:46;;;;;;;5.65;1.70;;;17.10;99.90;;;;;;5085410;28;20494;-61
2023/09/18 08:45:35;;;;;;;8.35;2.13;;;17.30;99.90;;;;;;5088339;28;20039;-63
2023/09/18 08:48:03;;;;;;;4.00;1.95;;;17.40;99.90;;;;;;5098660;28;20066;-61
2023/09/18 08:50:32;;;;;;;10.57;1.92;;;17.60;99.90;;;;;;5089200;28;20039;-61
2023/09/18 08:53:01;;;;;;;9.63;2.10;;;17.80;99.90;;;;;;5118143;27;20657;-60
2023/09/18 08:55:34;;;;;;;11.13;1.70;;;17.90;99.90;;;;;;5129063;27;20043;-61
2023/09/18 08:58:02;;;;;;;6.18;1.55;;;18.10;99.90;;;;;;5115614;27;20510;-61
2023/09/18 09:00:29;;;;;;;7.20;1.95;;;18.20;99.90;;;;;;5108266;28;20066;-60
2023/09/18 09:02:59;;;;;;;6.07;1.63;;;18.30;99.90;;;;;;5111404;28;20399;-61
2023/09/18 09:05:27;;;;;;;6.33;1.90;;;18.30;99.90;;;;;;5097051;28;20498;-60
2023/09/18 09:07:56;;;;;;;3.72;1.65;;;18.30;99.90;;;;;;5108501;28;20326;-60
2023/09/18 09:10:25;;;;;;;4.65;2.22;;;18.20;99.90;;;;;;5124152;28;20063;-60
2023/09/18 09:12:58;;;;;;;9.93;1.65;;;18.10;99.90;;;;;;5098287;28;20056;-60
2023/09/18 09:15:31;;;;;;;9.05;1.65;;;18.00;99.90;;;;;;5095500;28;20038;-62
2023/09/18 09:18:07;;;;;;;9.60;2.10;;;17.80;99.90;;;;;;5099009;28;20050;-61
2023/09/18 09:20:36;;;;;;;8.27;1.80;;;17.70;99.90;;;;;;5089172;28;20048;-61
2023/09/18 09:23:06;;;;;;;4.40;1.45;;;17.60;99.90;;;;;;5098926;28;20491;-60
2023/09/18 09:25:35;;;;;;;8.80;2.00;;;17.40;99.90;;;;;;5087457;28;20055;-59
2023/09/18 09:28:04;;;;;;;7.78;1.33;;;17.20;99.90;;;;;;5090411;28;20062;-60
2023/09/18 09:30:35;;;;;;;5.22;1.33;;;17.10;99.90;;;;;;5095103;28;20048;-60
2023/09/18 09:33:05;;;;;;;7.35;1.85;;;16.90;99.90;;;;;;5101479;28;20040;-59
2023/09/18 09:35:36;;;;;;;6.40;1.65;;;16.70;99.90;;;;;;5094714;27;20484;-60
2023/09/18 09:38:14;;;;;;;6.63;1.58;;;16.60;99.90;;;;;;5091506;28;20386;-60
2023/09/18 09:40:43;;;;;;;6.00;2.15;;;16.50;99.90;;;;;;5095428;28;20480;-59
2023/09/18 09:43:15;;;;;;;7.17;1.97;;;16.40;99.90;;;;;;5105631;28;20475;-59
2023/09/18 09:45:46;;;;;;;14.63;2.25;;;16.20;99.90;;;;;;5111552;28;20035;-59
2023/09/18 09:48:14;;;;;;;17.13;2.42;;;16.10;99.90;;;;;;5101451;28;20048;-58
2023/09/18 09:50:48;;;;;;;5.10;2.25;;;16.00;99.90;;;;;;5093640;27;20494;-59
2023/09/18 09:53:16;;;;;;;12.30;2.40;;;15.90;99.90;;;;;;5095370;28;20058;-59
2023/09/18 09:55:45;;;;;;;13.98;3.13;;;15.80;99.90;;;;;;5099411;28;20044;-59
2023/09/18 09:58:13;;;;;;;8.73;2.78;;;15.80;99.90;;;;;;5096817;27;20050;-59
2023/09/18 10:00:47;;;;;;;8.23;2.67;;;15.80;99.90;;;;;;5098707;28;20040;-59
2023/09/18 10:03:20;;;;;;;6.07;2.20;;;15.70;99.90;;;;;;5100383;27;20051;-60
2023/09/18 10:05:53;;;;;;;7.95;2.47;;;15.70;99.90;;;;;;5104479;28;20040;-59
2023/09/18 10:08:26;;;;;;;8.55;2.50;;;15.70;99.90;;;;;;5106131;28;20058;-60
2023/09/18 10:10:58;;;;;;;15.35;2.70;;;15.70;99.90;;;;;;5100763;28;20043;-61
2023/09/18 10:13:36;;;;;;;10.40;2.50;;;15.70;99.90;;;;;;5093520;27;20047;-61
2023/09/18 10:16:06;;;;;;;7.22;2.33;;;15.60;99.90;;;;;;5089640;28;20040;-59
2023/09/18 10:19:03;;;;;;;6.72;1.80;;;15.60;99.90;;;;;;5102378;27;20048;-58
2023/09/18 10:21:41;;;;;;;6.57;1.80;;;15.50;99.90;;;;;;5098577;27;20036;-60
2023/09/18 10:24:20;;;;;;;8.75;2.95;;;15.50;99.90;;;;;;5096712;28;20613;-60
2023/09/18 10:26:56;;;;;;;8.00;2.42;;;15.40;99.90;;;;;;5099521;27;20047;-59
2023/09/18 10:29:25;;;;;;;14.38;3.08;;;15.40;99.90;;;;;;5096310;28;20385;-61
2023/09/18 10:31:53;;;;;;;21.10;3.30;;;15.30;99.90;;;;;;5089720;28;20047;-62
2023/09/18 10:34:23;;;;;;;28.90;3.70;;;15.30;99.90;;;;;;5093385;28;20055;-66
2023/09/18 10:36:54;;;;;;;9.60;2.78;;;15.20;99.90;;;;;;5095802;27;20036;-65
2023/09/18 10:39:26;;;;;;;5.40;2.15;;;15.20;99.90;;;;;;5097271;28;20036;-62
2023/09/18 10:41:55;;;;;;;12.93;2.55;;;15.00;99.90;;;;;;5099039;28;20047;-62
2023/09/18 10:44:24;;;;;;;18.52;3.03;;;14.80;99.90;;;;;;5099822;28;20040;-63
2023/09/18 10:46:52;;;;;;;13.40;3.15;;;14.70;99.90;;;;;;5094660;28;20043;-62
2023/09/18 10:49:21;;;;;;;13.80;2.67;;;14.50;99.90;;;;;;5094477;28;20320;-61
2023/09/18 10:51:52;;;;;;;13.13;3.25;;;14.40;99.90;;;;;;5094098;28;20044;-61
2023/09/18 10:54:22;;;;;;;10.88;3.47;;;14.30;99.90;;;;;;5094297;27;20541;-62
2023/09/18 10:56:51;;;;;;;;;;;14.20;99.90;;;;;;5091939;27;20480;-62
2023/09/18 10:59:20;;;;;;;11.30;2.90;;;14.10;99.90;;;;;;5090976;27;19920;-62
2023/09/18 11:01:52;;;;;;;16.00;3.78;;;14.00;99.90;;;;;;5094607;27;20429;-61
2023/09/18 11:04:20;;;;;;;11.70;2.80;;;13.90;99.90;;;;;;5097917;27;20062;-60
2023/09/18 11:06:54;;;;;;;6.40;2.90;;;13.90;99.90;;;;;;5090611;28;20296;-62
2023/09/18 11:09:28;;;;;;;12.80;3.83;;;13.80;99.90;;;;;;5105677;28;20534;-62
2023/09/18 11:11:59;;;;;;;19.20;4.65;;;13.70;99.90;;;;;;5109600;27;20070;-62
2023/09/18 11:14:44;;;;;;;10.07;4.25;;;13.70;99.90;;;;;;5088085;28;20480;-64
2023/09/18 11:17:36;;;;;;;14.20;4.00;;;13.70;99.90;;;;;;5087711;28;20036;-64
2023/09/18 11:20:17;;;;;;;17.45;4.53;;;13.80;99.90;;;;;;5087945;28;20055;-63
2023/09/18 11:22:59;;;;;;;6.15;3.13;;;13.80;99.90;;;;;;5094721;28;20376;-64
2023/09/18 11:25:42;;;;;;;12.55;3.50;;;13.80;99.90;;;;;;5108381;28;20059;-63
2023/09/18 11:28:17;;;;;;;8.80;3.00;;;13.80;99.90;;;;;;5105967;27;20048;-63
2023/09/18 11:30:58;;;;;;;11.50;3.88;;;13.80;99.90;;;;;;5107682;28;20399;-63
2023/09/18 11:33:40;;;;;;;14.73;3.45;;;13.90;99.90;;;;;;5124296;27;20070;-65
2023/09/18 11:36:12;;;;;;;8.82;3.78;;;14.00;99.90;;;;;;5116600;27;20048;-64
2023/09/18 11:38:57;;;;;;;15.13;3.70;;;14.20;99.90;;;;;;5098905;28;20044;-65
2023/09/18 11:41:29;;;;;;;9.23;2.95;;;14.60;99.90;;;;;;5107797;28;20035;-66
2023/09/18 11:44:18;;;;;;;10.98;3.42;;;14.70;99.90;;;;;;5108091;28;20081;-65
2023/09/18 11:46:51;;;;;;;10.30;3.38;;;15.10;99.90;;;;;;5109308;28;20047;-65
2023/09/18 11:49:26;;;;;;;10.10;3.55;;;15.30;99.90;;;;;;5122482;27;20051;-65
2023/09/18 11:51:58;;;;;;;9.57;4.43;;;15.50;99.90;;;;;;5089830;28;20519;-63
2023/09/18 11:54:29;;;;;;;7.32;2.58;;;15.60;99.90;;;;;;5088255;28;20047;-64
2023/09/18 11:57:04;;;;;;;7.40;2.30;;;15.80;99.90;;;;;;5104075;28;20202;-64
2023/09/18 11:59:43;;;;;;;5.80;2.33;;;16.00;99.90;;;;;;5107812;27;20040;-66
2023/09/18 12:02:41;;;;;;;11.40;2.03;;;16.20;99.90;;;;;;5112909;27;20062;-64
2023/09/18 12:05:18;;;;;;;4.03;2.00;;;16.30;99.90;;;;;;5091100;28;20048;-64
2023/09/18 12:07:47;;;;;;;7.05;2.30;;;16.40;99.90;;;;;;5105992;27;20721;-63
2023/09/18 12:10:17;;;;;;;8.73;2.22;;;16.30;99.90;;;;;;5108985;28;20048;-65
2023/09/18 12:12:45;;;;;;;7.00;2.47;;;16.30;99.90;;;;;;5108903;27;20048;-61
2023/09/18 12:15:19;;;;;;;3.70;1.67;;;16.20;99.90;;;;;;5108933;28;20074;-64
2023/09/18 12:17:47;;;;;;;5.90;1.85;;;16.10;99.90;;;;;;5108731;28;20511;-59
2023/09/18 12:20:18;;;;;;;3.72;1.50;;;16.00;99.90;;;;;;5108815;28;20047;-62
2023/09/18 12:22:48;;;;;;;3.15;1.40;;;15.90;99.90;;;;;;5106841;28;20547;-64
2023/09/18 12:25:18;;;;;;;3.45;1.33;;;15.90;99.90;;;;;;5108639;28;20450;-66
2023/09/18 12:27:51;;;;;;;2.42;1.00;;;15.80;99.90;;;;;;5108748;28;20105;-65
2023/09/18 12:30:20;;;;;;;2.42;0.80;;;15.70;99.90;;;;;;5124956;27;20545;-63
2023/09/18 12:32:52;;;;;;;1.95;0.60;;;15.50;99.90;;;;;;5122050;27;20066;-58
2023/09/18 12:35:21;;;;;;;5.53;0.88;;;15.40;99.90;;;;;;5108854;28;20048;-61
2023/09/18 12:37:49;;;;;;;4.97;0.93;;;15.30;99.90;;;;;;5105001;28;20031;-63
2023/09/18 12:40:35;;;;;;;2.67;0.63;;;15.20;99.90;;;;;;5105488;28;20390;-65
2023/09/18 12:43:03;;;;;;;5.55;1.17;;;15.10;99.90;;;;;;5108051;28;20048;-61
2023/09/18 12:45:30;;;;;;;3.03;0.75;;;15.00;99.90;;;;;;5108610;28;20047;-64
2023/09/18 12:47:59;;;;;;;4.45;1.13;;;14.80;99.90;;;;;;5113390;27;20637;-61
2023/09/18 12:50:27;;;;;;;5.15;0.90;;;14.70;99.90;;;;;;5129505;27;20050;-63
2023/09/18 12:53:07;;;;;;;5.32;1.15;;;14.50;99.90;;;;;;5103452;27;20062;-62
2023/09/18 12:55:35;;;;;;;3.72;0.95;;;14.40;99.90;;;;;;5107212;28;20055;-64